Terminal Aerodrome Forecast
Issued by NWS

Home | Current Version | Previous Version | Text Only | Print | Product List | Glossary On
Versions: 1 2 3 4 5 6 7 8 9 10 11 12 13 14 15
000
FTUS43 KGRB 210520
TAFATW
TAF
KATW 210520Z 2106/2206 21005KT P6SM SCT050 BKN150
      TEMPO 2109/2113 4SM BR
     FM211500 21004KT P6SM SCT040 BKN090
     FM220000 19007KT P6SM SCT025 BKN050 PROB30 2200/2206 3SM -TSRA
      BKN025CB=

USA.gov is the U.S. government's official web portal to all federal, state and local government web resources and services.